Time;durP1;ratioP1;P1;durP2;ratioP2;P2;SDS_P1;SDS_P2;PMS_P1;PMS_P2;Temp;Humidity;BMP_temperature;BMP_pressure;BME280_temperature;BME280_humidity;BME280_pressure;Samples;Min_cycle;Max_cycle;Signal;HPM_P1;HPM_P2
2022/05/15 00:02:12;;;;;;;3.30;1.48;;;15.20;67.90;;;;;;5117749;28;20027;-91
2022/05/15 00:04:37;;;;;;;;;;;15.00;69.30;;;;;;5098904;28;20028;-90
2022/05/15 00:07:04;;;;;;;5.65;0.95;;;15.00;70.40;;;;;;5098365;28;20291;-91
2022/05/15 00:09:30;;;;;;;4.63;0.85;;;14.90;71.70;;;;;;5098392;28;20043;-90
2022/05/15 00:11:56;;;;;;;;;;;14.80;73.10;;;;;;5098842;28;20452;-91
2022/05/15 00:14:21;;;;;;;6.05;1.10;;;14.70;75.10;;;;;;5096873;28;20363;-91
2022/05/15 00:16:47;;;;;;;;;;;14.60;77.00;;;;;;5098407;28;20122;-91
2022/05/15 00:19:13;;;;;;;4.45;1.08;;;14.50;79.80;;;;;;5098367;28;19908;-89
2022/05/15 00:21:39;;;;;;;12.98;1.52;;;14.40;82.10;;;;;;5098563;28;20515;-90
2022/05/15 00:24:05;;;;;;;;;;;14.30;84.90;;;;;;5098619;28;20032;-90
2022/05/15 00:26:31;;;;;;;5.75;2.08;;;14.20;87.80;;;;;;5098256;28;19952;-90
2022/05/15 00:28:57;;;;;;;3.97;1.30;;;14.20;90.80;;;;;;5092758;28;20063;-90
2022/05/15 00:31:23;;;;;;;;;;;14.10;92.50;;;;;;5098083;28;20055;-92
2022/05/15 00:33:49;;;;;;;6.55;1.30;;;14.10;93.80;;;;;;5097606;28;20424;-91
2022/05/15 00:36:15;;;;;;;3.58;1.10;;;14.10;94.70;;;;;;5097741;28;20556;-91
2022/05/15 00:38:41;;;;;;;;;;;14.10;95.90;;;;;;5098555;28;20023;-90
2022/05/15 00:41:08;;;;;;;9.63;1.50;;;14.10;96.50;;;;;;5098027;28;20022;-91
2022/05/15 00:43:34;;;;;;;5.80;1.63;;;14.10;97.30;;;;;;5098065;28;20028;-91
2022/05/15 00:46:00;;;;;;;6.90;1.58;;;14.20;98.20;;;;;;5097716;28;20556;-92
2022/05/15 00:48:25;;;;;;;;;;;14.20;98.40;;;;;;5098844;28;20039;-91
2022/05/15 00:50:51;;;;;;;4.70;1.60;;;14.20;98.80;;;;;;5097493;28;19961;-92
2022/05/15 00:53:18;;;;;;;5.38;1.00;;;14.20;99.20;;;;;;5099355;28;20019;-94
2022/05/15 00:55:49;;;;;;;5.78;1.52;;;14.20;99.50;;;;;;5098115;28;20110;-89
2022/05/15 00:58:25;;;;;;;4.43;1.17;;;14.20;99.90;;;;;;5097580;28;20070;-91
2022/05/15 01:00:51;;;;;;;6.55;1.23;;;14.20;99.90;;;;;;5099920;28;20059;-93
2022/05/15 01:03:19;;;;;;;4.68;1.10;;;14.20;99.90;;;;;;5098019;28;20027;-91
2022/05/15 01:05:51;;;;;;;3.38;1.30;;;14.20;99.90;;;;;;5097321;28;20028;-89
2022/05/15 01:08:17;;;;;;;8.27;1.40;;;14.20;99.90;;;;;;5097555;28;20070;-94
2022/05/15 01:10:47;;;;;;;4.97;1.40;;;14.20;99.90;;;;;;5097519;28;20142;-94
2022/05/15 01:13:14;;;;;;;5.75;1.58;;;14.10;99.90;;;;;;5096467;28;20391;-92
2022/05/15 01:15:41;;;;;;;8.55;1.25;;;14.10;99.90;;;;;;5096996;28;20038;-90
2022/05/15 01:18:08;;;;;;;4.13;1.20;;;14.10;99.90;;;;;;5097154;28;20023;-94
2022/05/15 01:20:36;;;;;;;5.70;0.93;;;14.10;99.90;;;;;;5104426;28;20030;-96
2022/05/15 01:23:02;;;;;;;5.47;0.90;;;14.10;99.90;;;;;;5122329;28;20024;-92
2022/05/15 01:25:29;;;;;;;;;;;14.10;99.90;;;;;;5102963;28;20024;-92
2022/05/15 01:28:00;;;;;;;;;;;14.10;99.90;;;;;;5099407;28;19943;-87
2022/05/15 01:30:26;;;;;;;3.00;1.02;;;14.10;99.90;;;;;;5115332;28;19916;-94
2022/05/15 01:32:53;;;;;;;5.88;1.20;;;14.10;99.90;;;;;;5095731;28;20034;-92
2022/05/15 01:35:19;;;;;;;9.43;1.10;;;14.00;99.90;;;;;;5078117;28;20085;-93
2022/05/15 01:37:45;;;;;;;;;;;14.00;99.90;;;;;;5094609;28;20009;-91
2022/05/15 01:40:11;;;;;;;6.43;1.33;;;14.00;99.90;;;;;;5099726;28;19939;-92
2022/05/15 01:42:37;;;;;;;3.13;1.25;;;14.00;99.90;;;;;;5091826;28;20039;-91
2022/05/15 01:45:05;;;;;;;4.03;0.88;;;14.00;99.90;;;;;;5087488;28;20083;-91
2022/05/15 01:47:30;;;;;;;5.13;1.17;;;14.00;99.90;;;;;;5085339;28;20040;-91
2022/05/15 01:49:56;;;;;;;;;;;14.00;99.90;;;;;;5092061;28;20082;-91
2022/05/15 01:52:22;;;;;;;4.82;1.42;;;14.00;99.90;;;;;;5086954;28;19923;-91
2022/05/15 01:54:47;;;;;;;;;;;14.10;99.90;;;;;;5088176;28;20049;-92
2022/05/15 01:57:13;;;;;;;3.90;1.10;;;14.00;99.90;;;;;;5082467;28;19917;-91
2022/05/15 01:59:38;;;;;;;;;;;14.10;99.90;;;;;;5076404;28;20033;-93
2022/05/15 02:02:06;;;;;;;5.97;1.20;;;14.10;99.90;;;;;;5078954;28;20307;-91
2022/05/15 02:04:32;;;;;;;4.55;1.13;;;14.10;99.90;;;;;;5083285;28;20027;-92
2022/05/15 02:06:57;;;;;;;;;;;14.10;99.90;;;;;;5081453;27;20040;-92
2022/05/15 02:09:23;;;;;;;7.10;0.70;;;14.10;99.90;;;;;;5082404;28;19912;-91
2022/05/15 02:11:48;;;;;;;;;;;14.10;99.90;;;;;;5096611;28;20489;-93
2022/05/15 02:14:14;;;;;;;6.30;0.98;;;14.10;99.90;;;;;;5077445;28;20325;-92
2022/05/15 02:16:40;;;;;;;2.83;0.77;;;14.10;99.90;;;;;;5096319;27;20037;-93
2022/05/15 02:19:06;;;;;;;7.47;1.13;;;14.10;99.90;;;;;;5103641;27;20476;-93
2022/05/15 02:21:32;;;;;;;;;;;14.10;99.90;;;;;;5069473;28;20025;-92
2022/05/15 02:23:57;;;;;;;3.60;0.95;;;14.10;99.90;;;;;;5064933;28;19912;-91
2022/05/15 02:26:23;;;;;;;;;;;14.20;99.90;;;;;;5057639;28;20039;-92
2022/05/15 02:28:49;;;;;;;7.60;1.38;;;14.20;99.90;;;;;;5068531;28;19913;-92
2022/05/15 02:31:16;;;;;;;2.10;0.80;;;14.20;99.90;;;;;;5051470;28;20037;-93
2022/05/15 02:33:42;;;;;;;3.47;1.35;;;14.20;99.90;;;;;;5072840;27;20560;-91
2022/05/15 02:36:08;;;;;;;;;;;14.20;99.90;;;;;;5068420;28;20040;-91
2022/05/15 02:38:35;;;;;;;7.82;1.30;;;14.20;99.90;;;;;;5061993;28;19919;-92
2022/05/15 02:41:01;;;;;;;4.68;1.00;;;14.20;99.90;;;;;;5073261;28;20033;-92
2022/05/15 02:43:27;;;;;;;;;;;14.20;99.90;;;;;;5065828;28;20040;-93
2022/05/15 02:45:52;;;;;;;3.30;0.90;;;14.20;99.90;;;;;;5069618;28;19919;-92
2022/05/15 02:51:06;;;;;;;4.35;0.93;;;14.20;99.90;;;;;;5078124;28;20149;-92
2022/05/15 02:53:34;;;;;;;8.30;1.75;;;14.20;99.90;;;;;;5070296;28;20064;-92
2022/05/15 02:56:01;;;;;;;5.88;1.08;;;14.20;99.90;;;;;;5048703;28;20024;-93
2022/05/15 02:58:28;;;;;;;7.32;1.38;;;14.20;99.90;;;;;;5073494;28;20024;-94
2022/05/15 03:00:56;;;;;;;5.50;1.13;;;14.20;99.90;;;;;;5074197;28;20404;-94
2022/05/15 03:03:22;;;;;;;3.60;0.95;;;14.10;99.90;;;;;;5072497;28;20025;-94
2022/05/15 03:05:48;;;;;;;6.70;1.27;;;14.10;99.90;;;;;;5072760;28;20405;-93
2022/05/15 03:08:13;;;;;;;;;;;14.10;99.90;;;;;;5075249;28;20027;-94
2022/05/15 03:10:39;;;;;;;6.25;0.90;;;14.10;99.90;;;;;;5055921;28;19964;-93
2022/05/15 03:13:05;;;;;;;;;;;14.00;99.90;;;;;;5072276;28;20119;-92
2022/05/15 03:15:30;;;;;;;3.78;1.30;;;14.00;99.90;;;;;;5055606;28;19908;-94
2022/05/15 03:17:56;;;;;;;;;;;14.00;99.90;;;;;;5072164;28;20028;-94
2022/05/15 03:20:27;;;;;;;7.03;1.08;;;13.90;99.90;;;;;;5055555;28;20280;-93
2022/05/15 03:22:55;;;;;;;6.57;1.35;;;13.90;99.90;;;;;;5072023;28;20085;-95
2022/05/15 03:25:22;;;;;;;2.75;1.20;;;13.90;99.90;;;;;;5071926;28;20033;-94
2022/05/15 03:27:47;;;;;;;3.83;1.00;;;13.90;99.90;;;;;;5055749;28;20025;-93
2022/05/15 03:30:13;;;;;;;;;;;13.90;99.90;;;;;;5072136;28;20512;-92
2022/05/15 03:32:39;;;;;;;9.05;1.27;;;13.90;99.90;;;;;;5054728;28;19904;-93
2022/05/15 03:35:06;;;;;;;;;;;13.90;99.90;;;;;;5071662;28;20039;-93
2022/05/15 03:37:32;;;;;;;10.35;1.30;;;13.90;99.90;;;;;;5058242;28;19905;-93
2022/05/15 03:39:57;;;;;;;;;;;13.90;99.90;;;;;;5075625;28;20073;-93
2022/05/15 03:42:24;;;;;;;5.03;2.00;;;13.90;99.90;;;;;;5058787;28;19966;-93
2022/05/15 03:44:51;;;;;;;4.70;1.25;;;13.90;99.90;;;;;;5075452;28;20111;-94
2022/05/15 03:47:17;;;;;;;2.28;0.98;;;14.00;99.90;;;;;;5074980;28;20840;-93
2022/05/15 03:49:42;;;;;;;;;;;14.20;99.90;;;;;;5075347;28;20199;-93
2022/05/15 03:52:08;;;;;;;4.07;1.13;;;14.30;99.90;;;;;;5059133;28;19908;-93
2022/05/15 03:54:33;;;;;;;;;;;14.50;99.90;;;;;;5079271;28;20036;-92
2022/05/15 03:56:59;;;;;;;3.53;1.17;;;14.60;99.90;;;;;;5063947;28;19990;-92
2022/05/15 03:59:27;;;;;;;;;;;14.70;99.90;;;;;;5077652;28;20603;-93
2022/05/15 04:01:53;;;;;;;6.78;0.88;;;14.80;99.90;;;;;;5058084;28;19904;-91
2022/05/15 04:04:19;;;;;;;3.67;1.05;;;14.90;99.90;;;;;;5076225;28;20110;-93
2022/05/15 04:06:45;;;;;;;;;;;15.10;99.90;;;;;;5075801;28;20481;-94
2022/05/15 04:09:11;;;;;;;2.85;0.98;;;15.20;99.50;;;;;;5058898;28;19916;-92
2022/05/15 04:11:37;;;;;;;4.15;1.20;;;15.30;99.50;;;;;;5074548;28;20032;-94
2022/05/15 04:14:02;;;;;;;;;;;15.50;99.30;;;;;;5075631;28;20085;-93
2022/05/15 04:16:28;;;;;;;3.33;1.30;;;15.80;98.70;;;;;;5060800;28;19904;-93
2022/05/15 04:18:55;;;;;;;3.38;1.10;;;16.00;97.70;;;;;;5076526;28;20481;-93
2022/05/15 04:21:21;;;;;;;4.63;0.80;;;16.40;97.50;;;;;;5074531;28;20028;-93
2022/05/15 04:23:47;;;;;;;4.00;1.52;;;16.50;97.10;;;;;;5073974;28;20039;-92
2022/05/15 04:26:13;;;;;;;;;;;16.50;97.00;;;;;;5075067;28;20409;-93
2022/05/15 04:28:39;;;;;;;9.45;1.23;;;16.50;97.40;;;;;;5057877;28;19985;-93
2022/05/15 04:31:05;;;;;;;6.97;1.42;;;16.60;97.00;;;;;;5074968;28;20056;-92
2022/05/15 04:33:31;;;;;;;7.00;1.00;;;16.70;96.20;;;;;;5075338;28;20493;-92
2022/05/15 04:35:58;;;;;;;4.80;1.00;;;17.00;95.20;;;;;;5074819;28;20028;-93
2022/05/15 04:38:23;;;;;;;4.97;0.73;;;17.20;95.30;;;;;;5076064;28;20032;-93
2022/05/15 04:40:49;;;;;;;4.65;1.55;;;17.40;93.80;;;;;;5074350;28;20447;-94
2022/05/15 04:43:15;;;;;;;4.72;1.50;;;17.70;92.10;;;;;;5058002;28;20378;-93
2022/05/15 04:45:40;;;;;;;5.75;1.17;;;17.90;91.10;;;;;;5075675;28;20028;-94
2022/05/15 04:48:09;;;;;;;6.90;1.55;;;18.00;92.10;;;;;;5087171;28;20033;-94
2022/05/15 04:50:37;;;;;;;7.05;0.80;;;18.10;93.10;;;;;;5080109;28;20055;-93
2022/05/15 04:53:06;;;;;;;3.58;1.05;;;18.20;92.00;;;;;;5097100;28;20072;-90
2022/05/15 04:55:31;;;;;;;4.15;1.17;;;18.40;90.70;;;;;;5089322;28;20029;-94
2022/05/15 04:57:57;;;;;;;3.92;1.00;;;18.50;90.30;;;;;;5076876;28;20020;-92
2022/05/15 05:00:23;;;;;;;3.65;0.93;;;18.50;91.60;;;;;;5073711;28;20028;-92
2022/05/15 05:02:49;;;;;;;5.85;1.23;;;18.70;92.00;;;;;;5074287;28;20021;-92
2022/05/15 05:05:15;;;;;;;4.47;0.90;;;18.80;91.50;;;;;;5074741;28;20127;-92
2022/05/15 05:07:41;;;;;;;4.88;1.75;;;19.00;90.10;;;;;;5073884;28;20501;-93
2022/05/15 05:10:09;;;;;;;3.92;1.10;;;19.20;85.70;;;;;;5073248;28;20040;-92
2022/05/15 05:12:36;;;;;;;3.90;1.40;;;19.40;84.40;;;;;;5074445;28;20612;-92
2022/05/15 05:15:03;;;;;;;3.28;1.05;;;19.60;78.80;;;;;;5073725;28;20024;-91
2022/05/15 05:17:29;;;;;;;3.05;0.98;;;19.80;77.30;;;;;;5074247;28;20025;-93
2022/05/15 05:19:54;;;;;;;3.15;1.23;;;20.10;77.60;;;;;;5057384;28;20054;-93
2022/05/15 05:22:20;;;;;;;10.75;1.20;;;20.30;75.50;;;;;;5073320;28;20392;-92
2022/05/15 05:24:45;;;;;;;5.13;1.15;;;20.50;74.90;;;;;;5073599;28;20560;-92
2022/05/15 05:27:11;;;;;;;3.38;1.17;;;20.90;75.30;;;;;;5074117;28;20120;-92
2022/05/15 05:29:37;;;;;;;5.47;1.20;;;21.30;68.70;;;;;;5073703;28;20643;-93
2022/05/15 05:32:03;;;;;;;4.63;1.27;;;21.50;65.30;;;;;;5073314;28;20067;-91
2022/05/15 05:34:29;;;;;;;3.08;1.30;;;21.50;64.30;;;;;;5074181;28;20020;-92
2022/05/15 05:36:55;;;;;;;3.80;1.05;;;21.70;63.80;;;;;;5072998;28;20042;-94
2022/05/15 05:39:21;;;;;;;6.57;1.10;;;21.90;63.20;;;;;;5073860;28;20119;-92
2022/05/15 05:41:47;;;;;;;5.35;1.20;;;22.30;60.30;;;;;;5073960;28;20040;-91
2022/05/15 05:44:13;;;;;;;4.85;1.13;;;22.60;57.10;;;;;;5058145;28;20111;-91
2022/05/15 05:46:39;;;;;;;3.72;1.10;;;22.90;55.10;;;;;;5073224;28;20024;-94
2022/05/15 05:49:04;;;;;;;5.68;1.25;;;23.50;52.80;;;;;;5073432;28;20550;-93
2022/05/15 05:51:30;;;;;;;10.30;1.60;;;24.40;50.00;;;;;;5056368;28;20039;-92
2022/05/15 05:53:56;;;;;;;6.20;1.60;;;25.30;43.70;;;;;;5055619;28;20374;-92
2022/05/15 05:56:22;;;;;;;4.30;1.10;;;25.90;39.60;;;;;;5056002;28;20033;-92
2022/05/15 05:58:48;;;;;;;5.28;1.38;;;26.30;37.00;;;;;;5055722;28;20028;-92
2022/05/15 06:01:14;;;;;;;6.63;1.48;;;26.80;35.00;;;;;;5055870;28;20115;-92
2022/05/15 06:06:24;;;;;;;5.50;1.35;;;27.90;33.20;;;;;;5074049;28;20519;-92
2022/05/15 06:08:50;;;;;;;8.93;1.65;;;28.20;31.70;;;;;;5055624;28;20020;-92
2022/05/15 06:11:15;;;;;;;9.48;1.38;;;28.70;29.80;;;;;;5055890;28;20043;-92
2022/05/15 06:13:41;;;;;;;11.95;2.25;;;29.10;29.00;;;;;;5055550;28;20024;-92
2022/05/15 06:16:08;;;;;;;5.70;1.23;;;29.90;27.70;;;;;;5055415;28;20201;-92
2022/05/15 06:18:34;;;;;;;4.35;1.33;;;30.60;27.70;;;;;;5056320;28;20122;-92
2022/05/15 06:21:00;;;;;;;6.45;1.55;;;31.50;27.20;;;;;;5055741;28;20037;-92
2022/05/15 06:23:26;;;;;;;7.13;1.10;;;32.20;26.00;;;;;;5073739;28;20079;-92
2022/05/15 06:25:52;;;;;;;3.80;1.25;;;32.70;24.70;;;;;;5055447;28;20489;-91
2022/05/15 06:28:17;;;;;;;5.68;1.23;;;32.90;23.90;;;;;;5055860;28;20063;-91
2022/05/15 06:30:43;;;;;;;6.40;1.20;;;33.00;24.00;;;;;;5055337;28;20036;-91
2022/05/15 06:33:09;;;;;;;9.98;2.20;;;33.20;23.70;;;;;;5055171;28;20017;-92
2022/05/15 06:35:35;;;;;;;12.15;2.25;;;32.90;22.80;;;;;;5073108;28;20108;-91
2022/05/15 06:38:03;;;;;;;5.47;1.23;;;33.30;22.70;;;;;;5072667;28;20543;-91
2022/05/15 06:40:29;;;;;;;6.30;1.40;;;33.30;22.70;;;;;;5054725;28;20117;-91
2022/05/15 06:42:54;;;;;;;17.25;1.92;;;33.60;22.50;;;;;;5054975;28;20432;-91
2022/05/15 06:45:20;;;;;;;12.18;1.73;;;33.70;21.90;;;;;;5073382;28;20112;-91
2022/05/15 06:47:46;;;;;;;4.43;1.35;;;33.50;21.70;;;;;;5054928;28;20033;-91
2022/05/15 06:50:12;;;;;;;2.38;1.30;;;34.10;20.40;;;;;;5052105;28;20056;-91
2022/05/15 06:52:39;;;;;;;8.80;2.22;;;33.80;21.10;;;;;;5069690;28;20025;-90
2022/05/15 06:55:14;;;;;;;9.65;1.30;;;33.70;21.40;;;;;;5055239;28;20064;-91
2022/05/15 06:57:41;;;;;;;5.13;1.50;;;33.70;21.30;;;;;;5071349;28;20024;-91
2022/05/15 07:00:14;;;;;;;5.22;1.27;;;33.50;22.10;;;;;;5055203;28;20029;-90
2022/05/15 07:02:41;;;;;;;3.10;1.38;;;33.40;22.50;;;;;;5071833;28;20044;-90
2022/05/15 07:05:09;;;;;;;5.93;1.30;;;33.60;22.30;;;;;;5072097;28;20020;-92
2022/05/15 07:07:35;;;;;;;5.45;1.60;;;34.00;22.30;;;;;;5072848;28;20028;-93
2022/05/15 07:10:00;;;;;;;9.32;1.27;;;33.90;22.20;;;;;;5055121;28;20580;-86
2022/05/15 07:12:26;;;;;;;4.05;1.00;;;33.90;22.00;;;;;;5075376;28;20028;-89
2022/05/15 07:14:52;;;;;;;7.40;1.42;;;34.00;21.90;;;;;;5075846;28;20031;-89
2022/05/15 07:17:17;;;;;;;4.00;0.98;;;33.80;21.80;;;;;;5075549;28;20028;-89
2022/05/15 07:19:43;;;;;;;7.70;1.50;;;34.00;21.90;;;;;;5075933;28;20021;-91
2022/05/15 07:22:10;;;;;;;3.03;0.95;;;33.90;21.50;;;;;;5075664;28;20029;-89
2022/05/15 07:24:38;;;;;;;6.03;1.50;;;33.70;21.40;;;;;;5076324;28;20494;-91
2022/05/15 07:27:06;;;;;;;3.72;1.33;;;33.20;22.50;;;;;;5058351;28;20036;-92
2022/05/15 07:29:33;;;;;;;9.05;1.27;;;33.80;21.90;;;;;;5075351;28;20390;-88
2022/05/15 07:31:59;;;;;;;6.07;1.38;;;33.80;21.40;;;;;;5075329;28;20111;-91
2022/05/15 07:34:25;;;;;;;6.95;1.50;;;33.80;21.40;;;;;;5075078;28;20120;-89
2022/05/15 07:36:52;;;;;;;4.72;1.63;;;34.00;20.60;;;;;;5075306;28;20051;-89
2022/05/15 07:39:20;;;;;;;7.25;1.77;;;34.00;21.10;;;;;;5058927;28;20021;-89
2022/05/15 07:41:46;;;;;;;3.70;1.15;;;34.20;20.80;;;;;;5075959;28;20039;-91
2022/05/15 07:44:12;;;;;;;7.53;1.67;;;34.00;20.80;;;;;;5074092;28;20083;-91
2022/05/15 07:46:39;;;;;;;3.28;1.17;;;33.80;21.20;;;;;;5073807;28;20032;-90
2022/05/15 07:49:06;;;;;;;3.80;1.17;;;34.00;21.70;;;;;;5074810;28;20634;-90
2022/05/15 07:51:32;;;;;;;6.85;1.20;;;34.00;21.00;;;;;;5075016;28;20067;-89
2022/05/15 07:53:59;;;;;;;5.22;1.38;;;34.00;21.00;;;;;;5058364;28;20485;-88
2022/05/15 07:56:25;;;;;;;9.13;1.67;;;34.30;21.30;;;;;;5074895;28;20110;-90
2022/05/15 07:58:51;;;;;;;6.75;1.15;;;34.00;21.70;;;;;;5080808;28;20013;-88
2022/05/15 08:01:17;;;;;;;4.22;1.20;;;33.90;22.40;;;;;;5066915;28;20029;-90
2022/05/15 08:03:43;;;;;;;5.55;1.20;;;33.80;21.90;;;;;;5078353;28;20024;-91
2022/05/15 08:08:57;;;;;;;2.50;1.20;;;34.00;21.60;;;;;;5076275;28;20056;-90
2022/05/15 08:11:26;;;;;;;5.57;1.55;;;34.20;22.10;;;;;;5074105;28;20083;-87
2022/05/15 08:13:52;;;;;;;5.60;1.25;;;34.20;21.70;;;;;;5074143;28;20036;-90
2022/05/15 08:16:18;;;;;;;3.55;1.20;;;33.90;22.60;;;;;;5074581;28;20028;-91
2022/05/15 08:24:14;;;;;;;4.93;1.08;;;34.40;21.80;;;;;;5076445;28;20038;-90
2022/05/15 08:26:40;;;;;;;5.53;1.25;;;34.40;21.50;;;;;;5076130;28;20020;-88
2022/05/15 08:29:06;;;;;;;6.05;1.30;;;34.50;21.30;;;;;;5075369;28;20031;-88
2022/05/15 08:31:31;;;;;;;8.45;1.20;;;34.30;22.00;;;;;;5057043;28;20054;-93
2022/05/15 08:33:57;;;;;;;5.22;1.30;;;34.00;21.90;;;;;;5075266;28;20025;-91
2022/05/15 08:36:23;;;;;;;5.47;1.23;;;34.20;21.90;;;;;;5074052;28;20017;-88
2022/05/15 08:38:49;;;;;;;9.32;1.45;;;34.20;21.40;;;;;;5075005;28;20028;-90
2022/05/15 08:41:20;;;;;;;7.03;1.20;;;34.30;21.10;;;;;;5057263;28;20402;-89
2022/05/15 08:43:50;;;;;;;3.80;1.63;;;34.50;21.40;;;;;;5057969;28;20040;-90
2022/05/15 08:46:33;;;;;;;5.45;1.27;;;34.10;21.70;;;;;;5074889;28;20032;-91
2022/05/15 08:49:32;;;;;;;8.75;1.35;;;34.30;21.60;;;;;;5074873;28;20033;-89
2022/05/15 08:52:09;;;;;;;4.03;0.90;;;34.20;21.30;;;;;;5073643;28;20155;-88
2022/05/15 08:54:39;;;;;;;3.33;0.95;;;33.90;21.60;;;;;;5057410;28;20032;-90
2022/05/15 08:57:08;;;;;;;4.72;1.42;;;33.80;21.50;;;;;;5056829;28;20025;-90
2022/05/15 08:59:44;;;;;;;6.68;1.17;;;34.20;21.30;;;;;;5073296;28;20505;-90
2022/05/15 09:02:11;;;;;;;3.15;1.10;;;34.50;21.00;;;;;;5074903;28;20025;-92
2022/05/15 09:04:38;;;;;;;6.22;1.60;;;34.50;21.00;;;;;;5074054;28;20031;-90
2022/05/15 09:07:04;;;;;;;9.82;1.65;;;34.40;21.40;;;;;;5075102;28;20032;-88
2022/05/15 09:10:14;;;;;;;6.22;1.23;;;34.60;21.40;;;;;;5057718;28;20094;-90
2022/05/15 09:12:43;;;;;;;6.93;1.05;;;34.50;20.50;;;;;;5075953;28;20021;-92
2022/05/15 09:15:30;;;;;;;3.15;0.90;;;34.70;20.90;;;;;;5057905;28;20500;-92
2022/05/15 09:18:03;;;;;;;7.60;1.30;;;34.80;21.10;;;;;;5076408;28;20036;-88
2022/05/15 09:20:53;;;;;;;8.77;1.40;;;35.00;21.10;;;;;;5074796;28;20033;-89
2022/05/15 09:23:37;;;;;;;7.65;1.52;;;35.20;20.80;;;;;;5074526;28;20025;-90
2022/05/15 09:26:06;;;;;;;5.05;0.88;;;35.00;21.10;;;;;;5075166;28;20060;-92
2022/05/15 09:28:42;;;;;;;6.85;1.30;;;34.90;21.30;;;;;;5074289;28;20039;-89
2022/05/15 09:31:42;;;;;;;3.72;1.35;;;35.20;20.90;;;;;;5074756;28;20025;-92
2022/05/15 09:34:30;;;;;;;5.63;1.10;;;35.10;21.30;;;;;;5057537;28;20395;-90
2022/05/15 09:39:47;;;;;;;3.13;1.05;;;34.50;21.40;;;;;;5075508;28;20051;-89
2022/05/15 09:45:07;;;;;;;10.55;1.50;;;34.50;21.50;;;;;;5073974;28;20046;-89
2022/05/15 09:47:45;;;;;;;6.88;1.45;;;34.40;22.00;;;;;;5055647;28;20016;-89
2022/05/15 09:50:42;;;;;;;5.72;1.35;;;34.60;22.10;;;;;;5074529;28;20139;-89
2022/05/15 09:53:30;;;;;;;9.15;1.00;;;34.90;21.50;;;;;;5056285;28;20021;-90
2022/05/15 09:56:00;;;;;;;6.50;1.00;;;35.10;21.50;;;;;;5039615;28;20033;-90
2022/05/15 09:58:34;;;;;;;7.20;0.93;;;35.30;21.10;;;;;;5072414;28;20611;-89
2022/05/15 10:01:13;;;;;;;4.05;0.90;;;35.00;20.40;;;;;;5056426;28;20020;-91
2022/05/15 10:03:39;;;;;;;6.68;1.30;;;34.80;21.10;;;;;;5056501;28;20098;-90
2022/05/15 10:06:08;;;;;;;4.18;0.65;;;34.00;20.80;;;;;;5056021;28;20056;-90
2022/05/15 10:08:35;;;;;;;3.83;1.13;;;33.60;21.90;;;;;;5073455;28;20032;-89
2022/05/15 10:11:10;;;;;;;2.40;0.90;;;33.00;21.80;;;;;;5072797;28;20044;-92
2022/05/15 10:13:52;;;;;;;4.82;1.33;;;32.30;22.10;;;;;;5055649;28;20024;-90
2022/05/15 10:16:32;;;;;;;6.47;0.82;;;31.80;22.30;;;;;;5072902;28;20029;-88
2022/05/15 10:19:13;;;;;;;8.07;1.30;;;31.40;22.80;;;;;;5072175;28;20027;-90
2022/05/15 10:21:42;;;;;;;4.72;0.95;;;31.10;23.00;;;;;;5056251;28;20028;-89
2022/05/15 10:24:15;;;;;;;5.60;1.08;;;30.70;24.00;;;;;;5073856;28;20036;-88
2022/05/15 10:27:10;;;;;;;5.40;1.10;;;30.60;24.50;;;;;;5072514;28;20024;-88
2022/05/15 10:29:38;;;;;;;3.15;0.90;;;30.40;24.10;;;;;;5071829;28;20031;-90
2022/05/15 10:32:28;;;;;;;4.65;1.25;;;30.30;24.30;;;;;;5053912;28;20064;-91
2022/05/15 10:34:55;;;;;;;4.35;1.10;;;30.10;23.60;;;;;;5054906;28;20056;-91
2022/05/15 10:37:39;;;;;;;2.53;0.82;;;29.70;23.40;;;;;;5055208;28;20040;-90
2022/05/15 10:40:27;;;;;;;4.07;0.80;;;29.60;23.30;;;;;;5055899;28;20171;-89
2022/05/15 10:43:30;;;;;;;2.55;0.90;;;29.40;23.30;;;;;;5056040;28;20028;-88
2022/05/15 10:46:15;;;;;;;3.63;1.10;;;29.30;23.90;;;;;;5073153;28;20032;-89
2022/05/15 10:49:10;;;;;;;5.00;0.95;;;29.20;24.50;;;;;;5056304;28;20025;-89
2022/05/15 10:51:44;;;;;;;7.10;1.20;;;28.90;23.90;;;;;;5055482;28;20413;-90
2022/05/15 10:57:51;;;;;;;2.30;0.98;;;28.30;24.20;;;;;;5073999;28;20044;-89
2022/05/15 11:00:47;;;;;;;2.67;1.00;;;28.10;25.60;;;;;;5056477;28;20027;-91
2022/05/15 11:03:17;;;;;;;3.33;0.80;;;28.00;25.10;;;;;;5070074;28;20023;-88
2022/05/15 11:05:58;;;;;;;8.35;1.17;;;28.00;25.70;;;;;;5076600;28;20012;-90
2022/05/15 11:08:52;;;;;;;3.25;1.00;;;27.90;25.20;;;;;;5061519;28;20033;-88
2022/05/15 11:11:35;;;;;;;3.42;1.25;;;27.90;25.40;;;;;;5074156;28;20033;-90
2022/05/15 11:14:27;;;;;;;7.78;1.33;;;27.90;24.70;;;;;;5055072;28;20017;-89
2022/05/15 11:17:00;;;;;;;7.75;1.10;;;27.90;26.10;;;;;;5046971;28;20120;-92
2022/05/15 11:19:53;;;;;;;4.78;1.42;;;28.00;25.70;;;;;;5055470;28;20564;-90
2022/05/15 11:22:33;;;;;;;9.80;1.50;;;27.90;26.00;;;;;;5068815;28;20029;-89
2022/05/15 11:25:18;;;;;;;2.78;0.88;;;27.90;26.00;;;;;;5055976;28;20032;-90
2022/05/15 11:28:09;;;;;;;6.68;1.17;;;27.70;25.70;;;;;;5056835;28;20020;-91
2022/05/15 11:30:40;;;;;;;2.47;1.00;;;27.40;26.30;;;;;;5069073;28;20044;-90
2022/05/15 11:33:08;;;;;;;5.15;0.82;;;27.20;26.90;;;;;;5071853;28;20025;-89
2022/05/15 11:36:01;;;;;;;5.00;1.20;;;27.40;26.70;;;;;;5055007;28;20028;-90
2022/05/15 11:38:29;;;;;;;2.95;1.20;;;27.60;27.00;;;;;;5051199;28;20025;-89
2022/05/15 11:40:56;;;;;;;6.20;1.33;;;27.80;27.50;;;;;;5054896;28;20052;-89
2022/05/15 11:43:30;;;;;;;4.20;1.45;;;28.00;27.70;;;;;;5071301;28;20086;-90
2022/05/15 11:45:58;;;;;;;5.45;1.17;;;28.00;27.50;;;;;;5051940;28;20092;-88
2022/05/15 11:48:31;;;;;;;5.63;0.90;;;28.10;27.30;;;;;;5052262;28;20033;-91
2022/05/15 11:50:58;;;;;;;5.63;1.65;;;28.00;27.50;;;;;;5043726;28;20053;-91
2022/05/15 11:53:46;;;;;;;3.60;0.85;;;27.80;27.50;;;;;;5051325;28;20385;-90
2022/05/15 11:56:39;;;;;;;6.20;1.00;;;27.80;27.80;;;;;;5051303;28;20029;-88
2022/05/15 11:59:13;;;;;;;4.63;1.20;;;28.00;27.50;;;;;;5028052;28;20064;-91
2022/05/15 12:01:39;;;;;;;3.33;1.00;;;28.10;26.40;;;;;;5054623;28;20025;-90
2022/05/15 12:04:18;;;;;;;4.57;1.40;;;28.00;24.70;;;;;;5054774;28;20013;-88
2022/05/15 12:06:57;;;;;;;4.95;1.08;;;27.90;25.70;;;;;;5037683;28;20038;-90
2022/05/15 12:09:41;;;;;;;6.47;1.15;;;27.80;26.40;;;;;;5054660;28;20028;-90
2022/05/15 12:12:27;;;;;;;4.38;1.20;;;27.60;26.50;;;;;;5054107;28;20063;-89
2022/05/15 12:15:16;;;;;;;9.20;1.13;;;27.60;28.30;;;;;;5047875;28;20021;-89
2022/05/15 12:17:51;;;;;;;7.32;1.40;;;27.70;26.90;;;;;;5054681;28;20434;-89
2022/05/15 12:20:28;;;;;;;9.00;1.25;;;27.80;26.50;;;;;;5054184;28;20029;-87
2022/05/15 12:23:10;;;;;;;5.47;1.40;;;27.70;26.40;;;;;;5053789;28;20096;-89
2022/05/15 12:25:46;;;;;;;3.17;0.80;;;27.80;27.40;;;;;;5054290;28;20017;-91
2022/05/15 12:31:30;;;;;;;4.45;0.98;;;28.20;26.50;;;;;;5055197;28;20092;-88
2022/05/15 12:34:10;;;;;;;6.30;0.95;;;28.20;27.10;;;;;;5054401;28;20116;-89
2022/05/15 12:36:40;;;;;;;3.88;1.20;;;28.30;27.20;;;;;;5037304;28;20021;-91
2022/05/15 12:39:10;;;;;;;4.10;1.25;;;28.40;27.80;;;;;;5037648;28;20029;-89
2022/05/15 12:41:41;;;;;;;3.13;0.70;;;28.40;28.00;;;;;;5037250;28;20055;-88
2022/05/15 12:44:10;;;;;;;4.93;1.02;;;28.20;27.20;;;;;;5037218;28;20029;-89
2022/05/15 12:46:37;;;;;;;8.50;0.90;;;27.90;26.10;;;;;;5059280;28;20021;-89
2022/05/15 12:49:05;;;;;;;3.35;0.75;;;28.00;26.70;;;;;;5058461;28;20115;-88
2022/05/15 12:51:34;;;;;;;3.42;1.00;;;28.00;26.60;;;;;;5072007;28;20034;-89
2022/05/15 12:54:02;;;;;;;6.45;0.98;;;27.90;26.40;;;;;;5065855;28;20029;-89
2022/05/15 12:56:31;;;;;;;9.18;1.00;;;27.70;26.50;;;;;;5059084;28;20060;-89
2022/05/15 12:59:18;;;;;;;5.53;1.08;;;27.50;26.70;;;;;;5047774;28;20033;-89
2022/05/15 13:01:44;;;;;;;4.55;1.15;;;27.40;27.20;;;;;;5053951;28;20529;-87
2022/05/15 13:04:21;;;;;;;4.40;1.00;;;27.40;27.60;;;;;;5064241;28;20033;-87
2022/05/15 13:06:56;;;;;;;5.30;1.20;;;27.60;28.10;;;;;;5068599;27;20035;-86
2022/05/15 13:09:29;;;;;;;3.60;1.08;;;27.80;28.80;;;;;;5049782;28;20132;-87
2022/05/15 13:11:58;;;;;;;8.77;1.15;;;27.90;29.20;;;;;;5063525;28;20139;-87
2022/05/15 13:14:48;;;;;;;4.00;0.88;;;28.00;28.60;;;;;;5040953;28;20029;-86
2022/05/15 13:17:22;;;;;;;5.70;1.20;;;27.90;28.80;;;;;;5067642;28;20508;-89
2022/05/15 13:19:52;;;;;;;8.02;0.90;;;27.70;28.30;;;;;;5044531;28;20446;-86
2022/05/15 13:22:24;;;;;;;6.63;1.38;;;27.80;29.20;;;;;;5052173;28;20076;-89
2022/05/15 13:24:57;;;;;;;5.72;1.20;;;27.90;28.30;;;;;;5047280;28;20095;-87
2022/05/15 13:27:24;;;;;;;5.30;0.82;;;27.90;28.40;;;;;;5052065;28;20119;-90
2022/05/15 13:29:50;;;;;;;3.15;0.95;;;28.00;28.70;;;;;;5072117;28;20024;-89
2022/05/15 13:32:17;;;;;;;3.58;0.95;;;28.10;28.00;;;;;;5052493;28;20029;-87
2022/05/15 13:34:43;;;;;;;2.90;0.88;;;28.10;28.00;;;;;;5061127;28;20116;-86
2022/05/15 13:37:34;;;;;;;5.13;0.98;;;28.10;28.10;;;;;;5076621;28;20158;-87